sensor_id;sensor_type;location;lat;lon;timestamp;P1;durP1;ratioP1;P2;durP2;ratioP2
495;SDS011;39559;48.630;9.162;2022-10-16T00:02:13;10.17;;;3.93;;
495;SDS011;39559;48.630;9.162;2022-10-16T00:04:39;5.20;;;3.40;;
495;SDS011;39559;48.630;9.162;2022-10-16T00:07:05;8.00;;;4.03;;
495;SDS011;39559;48.630;9.162;2022-10-16T00:09:32;12.18;;;4.30;;
495;SDS011;39559;48.630;9.162;2022-10-16T00:11:59;6.00;;;3.58;;
495;SDS011;39559;48.630;9.162;2022-10-16T00:14:25;6.28;;;3.55;;
495;SDS011;39559;48.630;9.162;2022-10-16T00:16:52;10.48;;;4.15;;
495;SDS011;39559;48.630;9.162;2022-10-16T00:24:24;4.65;;;3.67;;
495;SDS011;39559;48.630;9.162;2022-10-16T00:26:50;5.25;;;3.90;;
495;SDS011;39559;48.630;9.162;2022-10-16T00:29:16;6.40;;;3.73;;
495;SDS011;39559;48.630;9.162;2022-10-16T00:31:43;6.60;;;3.75;;
495;SDS011;39559;48.630;9.162;2022-10-16T00:34:10;6.80;;;3.38;;
495;SDS011;39559;48.630;9.162;2022-10-16T00:36:40;9.80;;;3.60;;
495;SDS011;39559;48.630;9.162;2022-10-16T00:39:05;4.70;;;3.73;;
495;SDS011;39559;48.630;9.162;2022-10-16T00:41:31;5.03;;;4.13;;
495;SDS011;39559;48.630;9.162;2022-10-16T00:45:17;6.22;;;3.10;;
495;SDS011;39559;48.630;9.162;2022-10-16T00:47:47;7.00;;;3.60;;
495;SDS011;39559;48.630;9.162;2022-10-16T00:50:28;18.40;;;3.53;;
495;SDS011;39559;48.630;9.162;2022-10-16T00:53:00;7.63;;;3.80;;
495;SDS011;39559;48.630;9.162;2022-10-16T00:55:37;6.72;;;3.50;;
495;SDS011;39559;48.630;9.162;2022-10-16T00:58:02;5.10;;;3.20;;
495;SDS011;39559;48.630;9.162;2022-10-16T01:00:28;5.53;;;3.60;;
495;SDS011;39559;48.630;9.162;2022-10-16T01:02:57;4.70;;;4.00;;
495;SDS011;39559;48.630;9.162;2022-10-16T01:09:17;4.88;;;3.00;;
495;SDS011;39559;48.630;9.162;2022-10-16T01:12:04;5.25;;;3.40;;
495;SDS011;39559;48.630;9.162;2022-10-16T01:14:53;6.82;;;3.78;;
495;SDS011;39559;48.630;9.162;2022-10-16T01:25:59;7.80;;;4.70;;
495;SDS011;39559;48.630;9.162;2022-10-16T01:28:46;10.00;;;3.80;;
495;SDS011;39559;48.630;9.162;2022-10-16T01:33:15;4.90;;;3.30;;
495;SDS011;39559;48.630;9.162;2022-10-16T01:35:52;7.13;;;3.92;;
495;SDS011;39559;48.630;9.162;2022-10-16T01:38:36;6.40;;;3.67;;
495;SDS011;39559;48.630;9.162;2022-10-16T01:41:09;9.02;;;3.22;;
495;SDS011;39559;48.630;9.162;2022-10-16T01:43:43;4.88;;;2.90;;
495;SDS011;39559;48.630;9.162;2022-10-16T01:46:14;5.40;;;3.45;;
495;SDS011;39559;48.630;9.162;2022-10-16T01:48:43;6.40;;;3.40;;
495;SDS011;39559;48.630;9.162;2022-10-16T01:51:10;4.40;;;3.53;;
495;SDS011;39559;48.630;9.162;2022-10-16T01:53:52;3.45;;;3.15;;
495;SDS011;39559;48.630;9.162;2022-10-16T01:57:09;4.15;;;3.30;;
495;SDS011;39559;48.630;9.162;2022-10-16T01:59:40;7.50;;;3.55;;
495;SDS011;39559;48.630;9.162;2022-10-16T02:02:10;4.72;;;3.42;;
495;SDS011;39559;48.630;9.162;2022-10-16T02:04:53;8.20;;;3.70;;
495;SDS011;39559;48.630;9.162;2022-10-16T02:07:23;12.90;;;4.18;;
495;SDS011;39559;48.630;9.162;2022-10-16T02:09:49;4.73;;;3.40;;
495;SDS011;39559;48.630;9.162;2022-10-16T02:12:17;6.50;;;3.27;;
495;SDS011;39559;48.630;9.162;2022-10-16T02:14:49;9.35;;;3.80;;
495;SDS011;39559;48.630;9.162;2022-10-16T02:17:16;6.93;;;4.10;;
495;SDS011;39559;48.630;9.162;2022-10-16T02:21:26;10.38;;;4.45;;
495;SDS011;39559;48.630;9.162;2022-10-16T02:24:10;7.10;;;4.40;;
495;SDS011;39559;48.630;9.162;2022-10-16T02:26:45;5.10;;;4.10;;
495;SDS011;39559;48.630;9.162;2022-10-16T02:29:20;5.57;;;3.80;;
495;SDS011;39559;48.630;9.162;2022-10-16T02:31:53;8.30;;;4.20;;
495;SDS011;39559;48.630;9.162;2022-10-16T02:34:24;4.28;;;3.88;;
495;SDS011;39559;48.630;9.162;2022-10-16T02:36:52;5.65;;;3.95;;
495;SDS011;39559;48.630;9.162;2022-10-16T02:39:20;9.10;;;3.58;;
495;SDS011;39559;48.630;9.162;2022-10-16T02:41:46;8.07;;;3.95;;
495;SDS011;39559;48.630;9.162;2022-10-16T02:45:03;4.97;;;3.95;;
495;SDS011;39559;48.630;9.162;2022-10-16T02:47:35;9.55;;;3.90;;
495;SDS011;39559;48.630;9.162;2022-10-16T02:50:02;7.93;;;4.15;;
495;SDS011;39559;48.630;9.162;2022-10-16T02:52:32;4.10;;;3.67;;
495;SDS011;39559;48.630;9.162;2022-10-16T02:55:00;4.45;;;4.05;;
495;SDS011;39559;48.630;9.162;2022-10-16T02:57:25;6.63;;;3.97;;
495;SDS011;39559;48.630;9.162;2022-10-16T02:59:51;4.67;;;3.87;;
495;SDS011;39559;48.630;9.162;2022-10-16T03:02:25;7.50;;;3.97;;
495;SDS011;39559;48.630;9.162;2022-10-16T03:04:59;11.75;;;4.35;;
495;SDS011;39559;48.630;9.162;2022-10-16T03:08:58;8.20;;;4.10;;
495;SDS011;39559;48.630;9.162;2022-10-16T03:11:23;7.60;;;4.10;;
495;SDS011;39559;48.630;9.162;2022-10-16T03:13:49;5.10;;;4.00;;
495;SDS011;39559;48.630;9.162;2022-10-16T03:16:15;4.20;;;3.80;;
495;SDS011;39559;48.630;9.162;2022-10-16T03:18:40;5.57;;;3.57;;
495;SDS011;39559;48.630;9.162;2022-10-16T03:21:06;6.67;;;4.17;;
495;SDS011;39559;48.630;9.162;2022-10-16T03:23:33;4.72;;;3.70;;
495;SDS011;39559;48.630;9.162;2022-10-16T03:25:58;9.43;;;4.03;;
495;SDS011;39559;48.630;9.162;2022-10-16T03:28:24;88.30;;;9.03;;
495;SDS011;39559;48.630;9.162;2022-10-16T03:32:57;5.10;;;4.10;;
495;SDS011;39559;48.630;9.162;2022-10-16T03:35:23;6.83;;;4.27;;
495;SDS011;39559;48.630;9.162;2022-10-16T03:37:49;6.75;;;3.80;;
495;SDS011;39559;48.630;9.162;2022-10-16T03:40:15;7.82;;;4.20;;
495;SDS011;39559;48.630;9.162;2022-10-16T03:42:42;6.90;;;3.55;;
495;SDS011;39559;48.630;9.162;2022-10-16T03:45:08;6.70;;;3.72;;
495;SDS011;39559;48.630;9.162;2022-10-16T03:47:34;8.85;;;4.35;;
495;SDS011;39559;48.630;9.162;2022-10-16T03:50:00;9.73;;;4.27;;
495;SDS011;39559;48.630;9.162;2022-10-16T03:52:26;5.23;;;3.87;;
495;SDS011;39559;48.630;9.162;2022-10-16T03:56:52;4.00;;;3.60;;
495;SDS011;39559;48.630;9.162;2022-10-16T03:59:17;5.80;;;3.70;;
495;SDS011;39559;48.630;9.162;2022-10-16T04:01:45;5.80;;;3.87;;
495;SDS011;39559;48.630;9.162;2022-10-16T04:04:13;5.82;;;3.60;;
495;SDS011;39559;48.630;9.162;2022-10-16T04:06:39;7.23;;;4.17;;
495;SDS011;39559;48.630;9.162;2022-10-16T04:09:04;8.30;;;3.33;;
495;SDS011;39559;48.630;9.162;2022-10-16T04:11:30;4.53;;;3.80;;
495;SDS011;39559;48.630;9.162;2022-10-16T04:13:55;4.23;;;3.83;;
495;SDS011;39559;48.630;9.162;2022-10-16T04:16:21;5.63;;;3.70;;
495;SDS011;39559;48.630;9.162;2022-10-16T04:20:50;6.80;;;3.80;;
495;SDS011;39559;48.630;9.162;2022-10-16T04:23:15;7.17;;;3.80;;
495;SDS011;39559;48.630;9.162;2022-10-16T04:25:41;4.90;;;4.07;;
495;SDS011;39559;48.630;9.162;2022-10-16T04:28:06;6.60;;;4.73;;
495;SDS011;39559;48.630;9.162;2022-10-16T04:30:32;9.63;;;5.03;;
495;SDS011;39559;48.630;9.162;2022-10-16T04:32:58;9.13;;;4.50;;
495;SDS011;39559;48.630;9.162;2022-10-16T04:35:24;5.63;;;4.30;;
495;SDS011;39559;48.630;9.162;2022-10-16T04:37:49;9.57;;;4.00;;
495;SDS011;39559;48.630;9.162;2022-10-16T04:40:15;5.50;;;3.73;;
495;SDS011;39559;48.630;9.162;2022-10-16T04:44:49;8.88;;;4.60;;
495;SDS011;39559;48.630;9.162;2022-10-16T04:47:15;6.73;;;4.13;;
495;SDS011;39559;48.630;9.162;2022-10-16T04:49:40;6.57;;;4.17;;
495;SDS011;39559;48.630;9.162;2022-10-16T04:52:06;4.67;;;4.23;;
495;SDS011;39559;48.630;9.162;2022-10-16T04:54:32;11.00;;;4.53;;
495;SDS011;39559;48.630;9.162;2022-10-16T04:56:57;7.47;;;4.07;;
495;SDS011;39559;48.630;9.162;2022-10-16T04:59:23;5.63;;;4.60;;
495;SDS011;39559;48.630;9.162;2022-10-16T05:01:49;4.22;;;3.80;;
495;SDS011;39559;48.630;9.162;2022-10-16T05:04:14;3.83;;;3.50;;
495;SDS011;39559;48.630;9.162;2022-10-16T05:08:45;4.80;;;4.10;;
495;SDS011;39559;48.630;9.162;2022-10-16T05:11:11;6.10;;;3.70;;
495;SDS011;39559;48.630;9.162;2022-10-16T05:13:36;6.63;;;4.10;;
495;SDS011;39559;48.630;9.162;2022-10-16T05:16:02;8.33;;;4.30;;
495;SDS011;39559;48.630;9.162;2022-10-16T05:18:27;7.07;;;4.07;;
495;SDS011;39559;48.630;9.162;2022-10-16T05:20:53;3.90;;;3.60;;
495;SDS011;39559;48.630;9.162;2022-10-16T05:23:18;4.60;;;3.90;;
495;SDS011;39559;48.630;9.162;2022-10-16T05:25:51;3.60;;;3.30;;
495;SDS011;39559;48.630;9.162;2022-10-16T05:28:17;4.15;;;3.75;;
495;SDS011;39559;48.630;9.162;2022-10-16T05:32:55;5.13;;;3.78;;
495;SDS011;39559;48.630;9.162;2022-10-16T05:35:21;4.10;;;3.70;;
495;SDS011;39559;48.630;9.162;2022-10-16T05:37:47;5.20;;;3.47;;
495;SDS011;39559;48.630;9.162;2022-10-16T05:40:13;4.85;;;4.03;;
495;SDS011;39559;48.630;9.162;2022-10-16T05:42:38;10.70;;;5.20;;
495;SDS011;39559;48.630;9.162;2022-10-16T05:45:05;8.18;;;3.80;;
495;SDS011;39559;48.630;9.162;2022-10-16T05:47:32;9.57;;;4.45;;
495;SDS011;39559;48.630;9.162;2022-10-16T05:49:57;6.57;;;4.00;;
495;SDS011;39559;48.630;9.162;2022-10-16T05:52:23;11.80;;;4.60;;
495;SDS011;39559;48.630;9.162;2022-10-16T05:56:40;9.95;;;4.55;;
495;SDS011;39559;48.630;9.162;2022-10-16T05:59:05;8.03;;;4.97;;
495;SDS011;39559;48.630;9.162;2022-10-16T06:01:31;7.90;;;4.43;;
495;SDS011;39559;48.630;9.162;2022-10-16T06:03:57;8.53;;;4.90;;
495;SDS011;39559;48.630;9.162;2022-10-16T06:06:25;6.97;;;4.90;;
495;SDS011;39559;48.630;9.162;2022-10-16T06:08:51;21.23;;;7.00;;
495;SDS011;39559;48.630;9.162;2022-10-16T06:11:19;32.05;;;7.82;;
495;SDS011;39559;48.630;9.162;2022-10-16T06:13:50;22.90;;;7.03;;
495;SDS011;39559;48.630;9.162;2022-10-16T06:16:21;12.63;;;7.63;;
495;SDS011;39559;48.630;9.162;2022-10-16T06:20:36;5.40;;;4.78;;
495;SDS011;39559;48.630;9.162;2022-10-16T06:23:02;6.75;;;4.63;;
495;SDS011;39559;48.630;9.162;2022-10-16T06:25:29;6.63;;;5.95;;
495;SDS011;39559;48.630;9.162;2022-10-16T06:27:56;6.35;;;5.75;;
495;SDS011;39559;48.630;9.162;2022-10-16T06:30:22;8.68;;;5.63;;
495;SDS011;39559;48.630;9.162;2022-10-16T06:32:47;7.20;;;5.73;;
495;SDS011;39559;48.630;9.162;2022-10-16T06:35:13;12.27;;;5.97;;
495;SDS011;39559;48.630;9.162;2022-10-16T06:37:38;14.23;;;5.83;;
495;SDS011;39559;48.630;9.162;2022-10-16T06:40:04;9.23;;;5.57;;
495;SDS011;39559;48.630;9.162;2022-10-16T06:44:34;6.53;;;5.90;;
495;SDS011;39559;48.630;9.162;2022-10-16T06:47:00;9.47;;;5.63;;
495;SDS011;39559;48.630;9.162;2022-10-16T06:49:25;6.23;;;5.43;;
495;SDS011;39559;48.630;9.162;2022-10-16T06:51:51;8.83;;;5.70;;
495;SDS011;39559;48.630;9.162;2022-10-16T06:54:16;18.43;;;7.07;;
495;SDS011;39559;48.630;9.162;2022-10-16T06:56:43;6.78;;;6.07;;
495;SDS011;39559;48.630;9.162;2022-10-16T06:59:08;13.50;;;6.80;;
495;SDS011;39559;48.630;9.162;2022-10-16T07:01:34;7.30;;;6.40;;
495;SDS011;39559;48.630;9.162;2022-10-16T07:03:59;5.73;;;5.23;;
495;SDS011;39559;48.630;9.162;2022-10-16T07:08:32;9.27;;;5.55;;
495;SDS011;39559;48.630;9.162;2022-10-16T07:11:00;12.10;;;5.53;;
495;SDS011;39559;48.630;9.162;2022-10-16T07:13:26;7.30;;;6.25;;
495;SDS011;39559;48.630;9.162;2022-10-16T07:15:51;10.83;;;5.63;;
495;SDS011;39559;48.630;9.162;2022-10-16T07:18:17;7.10;;;5.40;;
495;SDS011;39559;48.630;9.162;2022-10-16T07:20:43;13.23;;;5.63;;
495;SDS011;39559;48.630;9.162;2022-10-16T07:23:08;7.20;;;6.50;;
495;SDS011;39559;48.630;9.162;2022-10-16T07:25:34;6.97;;;6.27;;
495;SDS011;39559;48.630;9.162;2022-10-16T07:28:00;6.53;;;5.77;;
495;SDS011;39559;48.630;9.162;2022-10-16T07:32:29;8.40;;;7.55;;
495;SDS011;39559;48.630;9.162;2022-10-16T07:34:55;9.47;;;8.57;;
495;SDS011;39559;48.630;9.162;2022-10-16T07:37:20;8.70;;;7.90;;
495;SDS011;39559;48.630;9.162;2022-10-16T07:39:46;11.20;;;7.90;;
495;SDS011;39559;48.630;9.162;2022-10-16T07:42:12;6.83;;;6.10;;
495;SDS011;39559;48.630;9.162;2022-10-16T07:44:37;9.23;;;8.00;;
495;SDS011;39559;48.630;9.162;2022-10-16T07:47:03;9.63;;;6.63;;
495;SDS011;39559;48.630;9.162;2022-10-16T07:49:28;9.73;;;6.70;;
495;SDS011;39559;48.630;9.162;2022-10-16T07:51:54;7.10;;;6.40;;
495;SDS011;39559;48.630;9.162;2022-10-16T07:56:26;12.68;;;5.63;;
495;SDS011;39559;48.630;9.162;2022-10-16T07:58:52;13.10;;;5.33;;
495;SDS011;39559;48.630;9.162;2022-10-16T08:01:18;7.63;;;4.90;;
495;SDS011;39559;48.630;9.162;2022-10-16T08:03:48;5.60;;;5.20;;
495;SDS011;39559;48.630;9.162;2022-10-16T08:06:15;7.15;;;5.20;;
495;SDS011;39559;48.630;9.162;2022-10-16T08:08:41;7.70;;;4.60;;
495;SDS011;39559;48.630;9.162;2022-10-16T08:11:07;6.50;;;5.20;;
495;SDS011;39559;48.630;9.162;2022-10-16T08:13:33;6.67;;;5.63;;
495;SDS011;39559;48.630;9.162;2022-10-16T08:15:59;8.02;;;5.72;;
495;SDS011;39559;48.630;9.162;2022-10-16T08:20:24;6.05;;;5.50;;
495;SDS011;39559;48.630;9.162;2022-10-16T08:22:50;7.10;;;5.38;;
495;SDS011;39559;48.630;9.162;2022-10-16T08:25:16;7.10;;;5.33;;
495;SDS011;39559;48.630;9.162;2022-10-16T08:27:41;8.27;;;5.03;;
495;SDS011;39559;48.630;9.162;2022-10-16T08:30:07;7.43;;;4.73;;
495;SDS011;39559;48.630;9.162;2022-10-16T08:32:33;5.72;;;5.05;;
495;SDS011;39559;48.630;9.162;2022-10-16T08:34:59;4.80;;;4.33;;
495;SDS011;39559;48.630;9.162;2022-10-16T08:37:24;7.53;;;4.87;;
495;SDS011;39559;48.630;9.162;2022-10-16T08:39:50;6.00;;;4.03;;
495;SDS011;39559;48.630;9.162;2022-10-16T08:44:27;4.63;;;4.22;;
495;SDS011;39559;48.630;9.162;2022-10-16T08:50:02;5.07;;;3.95;;
495;SDS011;39559;48.630;9.162;2022-10-16T08:52:35;8.05;;;4.10;;
495;SDS011;39559;48.630;9.162;2022-10-16T08:55:05;5.10;;;4.05;;
495;SDS011;39559;48.630;9.162;2022-10-16T08:57:31;4.77;;;4.40;;
495;SDS011;39559;48.630;9.162;2022-10-16T08:59:59;5.65;;;4.03;;
495;SDS011;39559;48.630;9.162;2022-10-16T09:02:37;4.90;;;3.80;;
495;SDS011;39559;48.630;9.162;2022-10-16T09:05:41;5.07;;;3.85;;
495;SDS011;39559;48.630;9.162;2022-10-16T09:08:28;5.07;;;4.50;;
495;SDS011;39559;48.630;9.162;2022-10-16T09:12:04;4.38;;;3.97;;
495;SDS011;39559;48.630;9.162;2022-10-16T09:17:21;4.03;;;3.70;;
495;SDS011;39559;48.630;9.162;2022-10-16T09:20:26;5.07;;;3.78;;
495;SDS011;39559;48.630;9.162;2022-10-16T09:22:51;6.97;;;3.73;;
495;SDS011;39559;48.630;9.162;2022-10-16T09:25:25;5.40;;;3.70;;
495;SDS011;39559;48.630;9.162;2022-10-16T09:27:52;9.63;;;3.57;;
495;SDS011;39559;48.630;9.162;2022-10-16T09:32:17;4.30;;;3.90;;
495;SDS011;39559;48.630;9.162;2022-10-16T09:34:47;3.70;;;3.40;;
495;SDS011;39559;48.630;9.162;2022-10-16T09:37:20;4.77;;;3.40;;
495;SDS011;39559;48.630;9.162;2022-10-16T09:39:49;4.10;;;3.27;;
495;SDS011;39559;48.630;9.162;2022-10-16T09:42:20;5.97;;;3.17;;
495;SDS011;39559;48.630;9.162;2022-10-16T09:44:48;3.50;;;3.20;;
495;SDS011;39559;48.630;9.162;2022-10-16T09:47:17;4.07;;;3.40;;
495;SDS011;39559;48.630;9.162;2022-10-16T09:50:19;3.73;;;3.00;;
495;SDS011;39559;48.630;9.162;2022-10-16T09:52:45;3.40;;;3.10;;
495;SDS011;39559;48.630;9.162;2022-10-16T09:56:21;3.63;;;2.70;;
495;SDS011;39559;48.630;9.162;2022-10-16T09:58:52;3.17;;;2.97;;
495;SDS011;39559;48.630;9.162;2022-10-16T10:01:19;3.10;;;2.80;;
495;SDS011;39559;48.630;9.162;2022-10-16T10:03:47;4.07;;;2.50;;
495;SDS011;39559;48.630;9.162;2022-10-16T10:06:16;3.83;;;2.80;;
495;SDS011;39559;48.630;9.162;2022-10-16T10:09:00;2.90;;;2.60;;
495;SDS011;39559;48.630;9.162;2022-10-16T10:11:51;2.97;;;2.77;;
495;SDS011;39559;48.630;9.162;2022-10-16T10:14:29;3.50;;;2.60;;
495;SDS011;39559;48.630;9.162;2022-10-16T10:17:07;2.70;;;2.50;;
495;SDS011;39559;48.630;9.162;2022-10-16T10:20:23;3.63;;;3.07;;
495;SDS011;39559;48.630;9.162;2022-10-16T10:22:49;2.90;;;2.70;;
495;SDS011;39559;48.630;9.162;2022-10-16T10:25:26;3.93;;;2.63;;
495;SDS011;39559;48.630;9.162;2022-10-16T10:31:45;3.00;;;2.70;;
495;SDS011;39559;48.630;9.162;2022-10-16T10:37:12;4.33;;;3.10;;
495;SDS011;39559;48.630;9.162;2022-10-16T10:39:44;3.30;;;3.00;;
495;SDS011;39559;48.630;9.162;2022-10-16T10:47:31;4.83;;;2.90;;
495;SDS011;39559;48.630;9.162;2022-10-16T11:02:21;6.10;;;2.87;;
495;SDS011;39559;48.630;9.162;2022-10-16T11:08:45;3.33;;;3.03;;
495;SDS011;39559;48.630;9.162;2022-10-16T11:10:54;2.50;;;2.30;;
495;SDS011;39559;48.630;9.162;2022-10-16T11:16:01;3.40;;;2.80;;
495;SDS011;39559;48.630;9.162;2022-10-16T11:18:39;4.93;;;3.17;;
495;SDS011;39559;48.630;9.162;2022-10-16T11:21:14;3.40;;;2.80;;
495;SDS011;39559;48.630;9.162;2022-10-16T11:23:48;4.67;;;2.80;;
495;SDS011;39559;48.630;9.162;2022-10-16T11:26:19;4.00;;;2.83;;
495;SDS011;39559;48.630;9.162;2022-10-16T11:28:50;3.00;;;2.73;;
495;SDS011;39559;48.630;9.162;2022-10-16T11:32:12;3.70;;;3.00;;
495;SDS011;39559;48.630;9.162;2022-10-16T11:34:50;3.20;;;2.90;;
495;SDS011;39559;48.630;9.162;2022-10-16T11:37:20;4.10;;;2.93;;
495;SDS011;39559;48.630;9.162;2022-10-16T11:39:50;3.10;;;2.90;;
495;SDS011;39559;48.630;9.162;2022-10-16T11:42:38;3.10;;;2.90;;
495;SDS011;39559;48.630;9.162;2022-10-16T11:47:54;3.63;;;2.67;;
495;SDS011;39559;48.630;9.162;2022-10-16T11:53:21;4.00;;;3.53;;
495;SDS011;39559;48.630;9.162;2022-10-16T11:55:54;7.33;;;3.00;;
495;SDS011;39559;48.630;9.162;2022-10-16T11:58:39;4.00;;;3.10;;
495;SDS011;39559;48.630;9.162;2022-10-16T12:06:43;3.50;;;3.20;;
495;SDS011;39559;48.630;9.162;2022-10-16T12:09:24;3.40;;;3.17;;
495;SDS011;39559;48.630;9.162;2022-10-16T12:11:52;3.33;;;3.07;;
495;SDS011;39559;48.630;9.162;2022-10-16T12:14:19;4.23;;;3.07;;
495;SDS011;39559;48.630;9.162;2022-10-16T12:19:58;3.47;;;3.17;;
495;SDS011;39559;48.630;9.162;2022-10-16T12:22:26;5.30;;;3.03;;
495;SDS011;39559;48.630;9.162;2022-10-16T12:24:55;3.13;;;2.83;;
495;SDS011;39559;48.630;9.162;2022-10-16T12:27:26;5.17;;;3.00;;
495;SDS011;39559;48.630;9.162;2022-10-16T12:29:59;3.13;;;2.93;;
495;SDS011;39559;48.630;9.162;2022-10-16T12:32:28;3.43;;;3.00;;
495;SDS011;39559;48.630;9.162;2022-10-16T12:34:57;3.43;;;3.13;;
495;SDS011;39559;48.630;9.162;2022-10-16T12:37:26;4.57;;;3.07;;
495;SDS011;39559;48.630;9.162;2022-10-16T12:39:56;5.43;;;3.20;;
495;SDS011;39559;48.630;9.162;2022-10-16T12:43:47;6.77;;;3.40;;
495;SDS011;39559;48.630;9.162;2022-10-16T12:48:39;5.33;;;3.10;;
495;SDS011;39559;48.630;9.162;2022-10-16T12:51:10;4.73;;;3.10;;
495;SDS011;39559;48.630;9.162;2022-10-16T12:56:32;4.90;;;3.07;;
495;SDS011;39559;48.630;9.162;2022-10-16T12:59:21;4.33;;;3.23;;
495;SDS011;39559;48.630;9.162;2022-10-16T13:17:03;4.43;;;3.30;;
495;SDS011;39559;48.630;9.162;2022-10-16T13:28:07;3.83;;;3.10;;
495;SDS011;39559;48.630;9.162;2022-10-16T13:31:37;3.43;;;3.13;;
495;SDS011;39559;48.630;9.162;2022-10-16T13:34:04;5.30;;;3.43;;
495;SDS011;39559;48.630;9.162;2022-10-16T13:37:15;3.37;;;3.07;;
495;SDS011;39559;48.630;9.162;2022-10-16T13:39:41;3.67;;;3.37;;
495;SDS011;39559;48.630;9.162;2022-10-16T13:42:27;3.40;;;3.10;;
495;SDS011;39559;48.630;9.162;2022-10-16T13:44:53;3.73;;;3.43;;
495;SDS011;39559;48.630;9.162;2022-10-16T13:47:22;4.43;;;3.40;;
495;SDS011;39559;48.630;9.162;2022-10-16T13:52:44;4.90;;;3.27;;
495;SDS011;39559;48.630;9.162;2022-10-16T13:55:31;4.00;;;3.60;;
495;SDS011;39559;48.630;9.162;2022-10-16T13:58:13;3.50;;;3.20;;
495;SDS011;39559;48.630;9.162;2022-10-16T14:00:40;5.60;;;3.50;;
495;SDS011;39559;48.630;9.162;2022-10-16T14:03:18;4.90;;;3.13;;
495;SDS011;39559;48.630;9.162;2022-10-16T14:05:49;5.87;;;3.43;;
495;SDS011;39559;48.630;9.162;2022-10-16T14:08:20;8.70;;;3.60;;
495;SDS011;39559;48.630;9.162;2022-10-16T14:10:50;5.73;;;3.57;;
495;SDS011;39559;48.630;9.162;2022-10-16T14:13:19;4.00;;;3.60;;
495;SDS011;39559;48.630;9.162;2022-10-16T14:16:02;5.33;;;3.10;;
495;SDS011;39559;48.630;9.162;2022-10-16T14:19:25;7.80;;;3.40;;
495;SDS011;39559;48.630;9.162;2022-10-16T14:21:54;5.13;;;3.03;;
495;SDS011;39559;48.630;9.162;2022-10-16T14:24:40;4.60;;;3.50;;
495;SDS011;39559;48.630;9.162;2022-10-16T14:32:32;4.00;;;3.47;;
495;SDS011;39559;48.630;9.162;2022-10-16T14:34:58;6.20;;;3.60;;
495;SDS011;39559;48.630;9.162;2022-10-16T14:37:24;4.90;;;3.73;;
495;SDS011;39559;48.630;9.162;2022-10-16T14:39:52;11.90;;;4.10;;
495;SDS011;39559;48.630;9.162;2022-10-16T14:43:21;4.80;;;3.60;;
495;SDS011;39559;48.630;9.162;2022-10-16T14:45:51;9.30;;;3.97;;
495;SDS011;39559;48.630;9.162;2022-10-16T14:48:19;8.93;;;3.40;;
495;SDS011;39559;48.630;9.162;2022-10-16T14:50:45;4.47;;;3.77;;
495;SDS011;39559;48.630;9.162;2022-10-16T14:53:12;5.00;;;3.80;;
495;SDS011;39559;48.630;9.162;2022-10-16T14:55:38;4.87;;;3.40;;
495;SDS011;39559;48.630;9.162;2022-10-16T14:58:05;5.00;;;3.93;;
495;SDS011;39559;48.630;9.162;2022-10-16T15:00:35;8.43;;;3.80;;
495;SDS011;39559;48.630;9.162;2022-10-16T15:03:01;8.43;;;4.00;;
495;SDS011;39559;48.630;9.162;2022-10-16T15:07:14;5.83;;;4.27;;
495;SDS011;39559;48.630;9.162;2022-10-16T15:09:40;6.27;;;4.10;;
495;SDS011;39559;48.630;9.162;2022-10-16T15:12:06;9.27;;;4.13;;
495;SDS011;39559;48.630;9.162;2022-10-16T15:14:31;5.23;;;4.20;;
495;SDS011;39559;48.630;9.162;2022-10-16T15:16:57;7.73;;;4.23;;
495;SDS011;39559;48.630;9.162;2022-10-16T15:19:22;4.60;;;4.20;;
495;SDS011;39559;48.630;9.162;2022-10-16T15:21:48;10.07;;;3.70;;
495;SDS011;39559;48.630;9.162;2022-10-16T15:24:14;5.63;;;3.70;;
495;SDS011;39559;48.630;9.162;2022-10-16T15:26:40;6.80;;;3.93;;
495;SDS011;39559;48.630;9.162;2022-10-16T15:31:09;5.70;;;3.60;;
495;SDS011;39559;48.630;9.162;2022-10-16T15:33:35;7.33;;;4.17;;
495;SDS011;39559;48.630;9.162;2022-10-16T15:36:01;9.23;;;4.77;;
495;SDS011;39559;48.630;9.162;2022-10-16T15:38:28;4.00;;;3.57;;
495;SDS011;39559;48.630;9.162;2022-10-16T15:40:55;12.67;;;5.07;;
495;SDS011;39559;48.630;9.162;2022-10-16T15:43:21;5.70;;;4.53;;
495;SDS011;39559;48.630;9.162;2022-10-16T15:45:52;8.53;;;3.93;;
495;SDS011;39559;48.630;9.162;2022-10-16T15:48:26;7.07;;;4.13;;
495;SDS011;39559;48.630;9.162;2022-10-16T15:50:51;7.93;;;4.20;;
495;SDS011;39559;48.630;9.162;2022-10-16T15:55:05;7.53;;;3.97;;
495;SDS011;39559;48.630;9.162;2022-10-16T15:57:35;9.80;;;4.03;;
495;SDS011;39559;48.630;9.162;2022-10-16T16:00:05;8.27;;;4.70;;
495;SDS011;39559;48.630;9.162;2022-10-16T16:02:32;6.30;;;4.03;;
495;SDS011;39559;48.630;9.162;2022-10-16T16:04:58;14.43;;;4.23;;
495;SDS011;39559;48.630;9.162;2022-10-16T16:07:24;8.50;;;4.20;;
495;SDS011;39559;48.630;9.162;2022-10-16T16:09:49;6.10;;;3.90;;
495;SDS011;39559;48.630;9.162;2022-10-16T16:12:15;6.10;;;4.27;;
495;SDS011;39559;48.630;9.162;2022-10-16T16:14:40;9.00;;;4.10;;
495;SDS011;39559;48.630;9.162;2022-10-16T16:18:58;6.30;;;4.23;;
495;SDS011;39559;48.630;9.162;2022-10-16T16:21:24;6.27;;;4.30;;
495;SDS011;39559;48.630;9.162;2022-10-16T16:23:50;10.03;;;4.10;;
495;SDS011;39559;48.630;9.162;2022-10-16T16:26:22;8.70;;;4.47;;
495;SDS011;39559;48.630;9.162;2022-10-16T16:28:53;12.20;;;4.67;;
495;SDS011;39559;48.630;9.162;2022-10-16T16:31:19;11.37;;;4.20;;
495;SDS011;39559;48.630;9.162;2022-10-16T16:33:46;11.90;;;4.43;;
495;SDS011;39559;48.630;9.162;2022-10-16T16:36:12;5.23;;;3.83;;
495;SDS011;39559;48.630;9.162;2022-10-16T16:38:37;12.33;;;4.70;;
495;SDS011;39559;48.630;9.162;2022-10-16T16:42:53;6.90;;;4.30;;
495;SDS011;39559;48.630;9.162;2022-10-16T16:45:18;7.37;;;4.70;;
495;SDS011;39559;48.630;9.162;2022-10-16T16:47:44;8.63;;;4.00;;
495;SDS011;39559;48.630;9.162;2022-10-16T16:50:09;6.60;;;4.23;;
495;SDS011;39559;48.630;9.162;2022-10-16T16:52:35;8.53;;;4.10;;
495;SDS011;39559;48.630;9.162;2022-10-16T16:55:00;13.30;;;4.43;;
495;SDS011;39559;48.630;9.162;2022-10-16T16:57:26;16.13;;;5.90;;
495;SDS011;39559;48.630;9.162;2022-10-16T16:59:52;8.17;;;4.03;;
495;SDS011;39559;48.630;9.162;2022-10-16T17:02:18;8.20;;;4.40;;
495;SDS011;39559;48.630;9.162;2022-10-16T17:06:48;16.30;;;4.80;;
495;SDS011;39559;48.630;9.162;2022-10-16T17:09:13;7.13;;;4.37;;
495;SDS011;39559;48.630;9.162;2022-10-16T17:11:40;8.30;;;4.23;;
495;SDS011;39559;48.630;9.162;2022-10-16T17:14:08;8.30;;;4.50;;
495;SDS011;39559;48.630;9.162;2022-10-16T17:16:35;6.90;;;4.33;;
495;SDS011;39559;48.630;9.162;2022-10-16T17:19:02;6.38;;;4.28;;
495;SDS011;39559;48.630;9.162;2022-10-16T17:21:29;18.13;;;4.60;;
495;SDS011;39559;48.630;9.162;2022-10-16T17:23:57;6.63;;;4.70;;
495;SDS011;39559;48.630;9.162;2022-10-16T17:26:23;11.25;;;4.70;;
495;SDS011;39559;48.630;9.162;2022-10-16T17:30:42;7.25;;;4.57;;
495;SDS011;39559;48.630;9.162;2022-10-16T17:33:08;13.07;;;5.28;;
495;SDS011;39559;48.630;9.162;2022-10-16T17:35:38;8.82;;;5.30;;
495;SDS011;39559;48.630;9.162;2022-10-16T17:38:08;18.10;;;5.45;;
495;SDS011;39559;48.630;9.162;2022-10-16T17:40:34;7.50;;;4.55;;
495;SDS011;39559;48.630;9.162;2022-10-16T17:43:00;8.90;;;4.70;;
495;SDS011;39559;48.630;9.162;2022-10-16T17:45:27;5.93;;;5.13;;
495;SDS011;39559;48.630;9.162;2022-10-16T17:47:53;9.70;;;4.50;;
495;SDS011;39559;48.630;9.162;2022-10-16T17:50:18;5.57;;;4.87;;
495;SDS011;39559;48.630;9.162;2022-10-16T17:54:37;6.20;;;4.90;;
495;SDS011;39559;48.630;9.162;2022-10-16T17:57:03;9.52;;;5.13;;
495;SDS011;39559;48.630;9.162;2022-10-16T17:59:29;10.70;;;5.20;;
495;SDS011;39559;48.630;9.162;2022-10-16T18:01:55;8.77;;;5.00;;
495;SDS011;39559;48.630;9.162;2022-10-16T18:04:20;6.83;;;4.63;;
495;SDS011;39559;48.630;9.162;2022-10-16T18:06:46;14.20;;;5.70;;
495;SDS011;39559;48.630;9.162;2022-10-16T18:09:12;14.60;;;4.80;;
495;SDS011;39559;48.630;9.162;2022-10-16T18:11:42;12.07;;;5.80;;